sensor_id;sensor_type;location;lat;lon;timestamp;pressure;altitude;pressure_sealevel;temperature;humidity
73106;BME280;61559;50.476;15.588;2022-10-31T00:02:13;98145.00;;;5.62;87.17
73106;BME280;61559;50.476;15.588;2022-10-31T00:04:42;98146.38;;;5.61;87.29
73106;BME280;61559;50.476;15.588;2022-10-31T00:07:13;98148.94;;;5.59;87.24
73106;BME280;61559;50.476;15.588;2022-10-31T00:09:44;98148.73;;;5.59;87.32
73106;BME280;61559;50.476;15.588;2022-10-31T00:12:14;98147.87;;;5.59;87.39
73106;BME280;61559;50.476;15.588;2022-10-31T00:14:45;98149.30;;;5.59;87.42
73106;BME280;61559;50.476;15.588;2022-10-31T00:17:16;98153.13;;;5.60;87.37
73106;BME280;61559;50.476;15.588;2022-10-31T00:19:47;98149.09;;;5.60;87.17
73106;BME280;61559;50.476;15.588;2022-10-31T00:22:18;98148.13;;;5.61;87.13
73106;BME280;61559;50.476;15.588;2022-10-31T00:24:49;98152.30;;;5.61;87.03
73106;BME280;61559;50.476;15.588;2022-10-31T00:27:20;98151.45;;;5.60;86.69
73106;BME280;61559;50.476;15.588;2022-10-31T00:29:51;98152.98;;;5.59;86.46
73106;BME280;61559;50.476;15.588;2022-10-31T00:32:22;98157.42;;;5.58;86.44
73106;BME280;61559;50.476;15.588;2022-10-31T00:34:52;98155.98;;;5.56;86.52
73106;BME280;61559;50.476;15.588;2022-10-31T00:37:23;98157.98;;;5.53;86.66
73106;BME280;61559;50.476;15.588;2022-10-31T00:39:55;98162.34;;;5.51;86.82
73106;BME280;61559;50.476;15.588;2022-10-31T00:42:26;98164.48;;;5.48;86.83
73106;BME280;61559;50.476;15.588;2022-10-31T00:44:55;98158.80;;;5.41;86.90
73106;BME280;61559;50.476;15.588;2022-10-31T00:47:26;98162.99;;;5.31;87.13
73106;BME280;61559;50.476;15.588;2022-10-31T00:49:57;98163.20;;;5.26;87.29
73106;BME280;61559;50.476;15.588;2022-10-31T00:52:27;98157.42;;;5.25;87.38
73106;BME280;61559;50.476;15.588;2022-10-31T00:54:58;98156.00;;;5.23;87.36
73106;BME280;61559;50.476;15.588;2022-10-31T00:57:27;98154.48;;;5.20;87.45
73106;BME280;61559;50.476;15.588;2022-10-31T00:59:58;98148.41;;;5.15;87.50
73106;BME280;61559;50.476;15.588;2022-10-31T01:02:27;98151.89;;;5.16;87.57
73106;BME280;61559;50.476;15.588;2022-10-31T01:04:59;98144.89;;;5.15;87.55
73106;BME280;61559;50.476;15.588;2022-10-31T01:07:28;98143.20;;;5.16;87.48
73106;BME280;61559;50.476;15.588;2022-10-31T01:10:00;98142.27;;;5.16;87.45
73106;BME280;61559;50.476;15.588;2022-10-31T01:12:37;98143.82;;;5.16;87.40
73106;BME280;61559;50.476;15.588;2022-10-31T01:15:10;98142.09;;;5.18;87.37
73106;BME280;61559;50.476;15.588;2022-10-31T01:17:42;98136.88;;;5.17;87.20
73106;BME280;61559;50.476;15.588;2022-10-31T01:20:12;98140.39;;;5.17;87.15
73106;BME280;61559;50.476;15.588;2022-10-31T01:22:44;98139.63;;;5.15;87.14
73106;BME280;61559;50.476;15.588;2022-10-31T01:25:14;98135.03;;;5.14;87.03
73106;BME280;61559;50.476;15.588;2022-10-31T01:27:45;98135.89;;;5.12;87.06
73106;BME280;61559;50.476;15.588;2022-10-31T01:30:16;98135.34;;;5.10;87.14
73106;BME280;61559;50.476;15.588;2022-10-31T01:32:46;98128.95;;;5.07;87.34
73106;BME280;61559;50.476;15.588;2022-10-31T01:35:16;98128.02;;;5.01;87.38
73106;BME280;61559;50.476;15.588;2022-10-31T01:37:48;98122.41;;;4.97;87.51
73106;BME280;61559;50.476;15.588;2022-10-31T01:40:19;98119.19;;;4.94;87.53
73106;BME280;61559;50.476;15.588;2022-10-31T01:42:48;98119.74;;;4.96;87.67
73106;BME280;61559;50.476;15.588;2022-10-31T01:45:19;98122.05;;;4.94;87.60
73106;BME280;61559;50.476;15.588;2022-10-31T01:47:51;98124.23;;;4.95;87.41
73106;BME280;61559;50.476;15.588;2022-10-31T01:50:23;98118.27;;;4.94;87.22
73106;BME280;61559;50.476;15.588;2022-10-31T01:52:57;98120.98;;;4.93;87.22
73106;BME280;61559;50.476;15.588;2022-10-31T01:55:31;98115.66;;;4.92;87.09
73106;BME280;61559;50.476;15.588;2022-10-31T01:58:07;98116.27;;;4.90;87.01
73106;BME280;61559;50.476;15.588;2022-10-31T02:00:40;98114.99;;;4.87;87.00
73106;BME280;61559;50.476;15.588;2022-10-31T02:03:14;98113.77;;;4.83;87.14
73106;BME280;61559;50.476;15.588;2022-10-31T02:05:45;98109.78;;;4.82;87.53
73106;BME280;61559;50.476;15.588;2022-10-31T02:08:21;98111.98;;;4.83;87.48
73106;BME280;61559;50.476;15.588;2022-10-31T02:10:53;98109.38;;;4.84;87.48
73106;BME280;61559;50.476;15.588;2022-10-31T02:13:25;98111.92;;;4.86;87.39
73106;BME280;61559;50.476;15.588;2022-10-31T02:15:57;98116.21;;;4.88;87.23
73106;BME280;61559;50.476;15.588;2022-10-31T02:18:30;98117.23;;;4.88;87.11
73106;BME280;61559;50.476;15.588;2022-10-31T02:21:06;98117.55;;;4.87;87.30
73106;BME280;61559;50.476;15.588;2022-10-31T02:24:17;98121.58;;;4.89;87.41
73106;BME280;61559;50.476;15.588;2022-10-31T02:27:05;98119.17;;;4.88;87.43
73106;BME280;61559;50.476;15.588;2022-10-31T02:30:05;98117.79;;;4.80;87.29
73106;BME280;61559;50.476;15.588;2022-10-31T02:32:52;98114.30;;;4.73;87.54
73106;BME280;61559;50.476;15.588;2022-10-31T02:35:39;98113.14;;;4.72;87.61
73106;BME280;61559;50.476;15.588;2022-10-31T02:38:18;98112.36;;;4.72;87.61
73106;BME280;61559;50.476;15.588;2022-10-31T02:41:01;98117.16;;;4.75;87.66
73106;BME280;61559;50.476;15.588;2022-10-31T02:43:39;98118.90;;;4.78;87.66
73106;BME280;61559;50.476;15.588;2022-10-31T02:46:17;98116.82;;;4.80;87.62
73106;BME280;61559;50.476;15.588;2022-10-31T02:48:52;98116.92;;;4.82;87.44
73106;BME280;61559;50.476;15.588;2022-10-31T02:51:26;98117.54;;;4.83;87.44
73106;BME280;61559;50.476;15.588;2022-10-31T02:53:57;98115.90;;;4.84;87.38
73106;BME280;61559;50.476;15.588;2022-10-31T02:56:28;98115.59;;;4.83;87.34
73106;BME280;61559;50.476;15.588;2022-10-31T02:59:01;98119.05;;;4.78;87.42
73106;BME280;61559;50.476;15.588;2022-10-31T03:02:03;98119.61;;;4.76;87.65
73106;BME280;61559;50.476;15.588;2022-10-31T03:07:32;98124.16;;;4.76;87.52
73106;BME280;61559;50.476;15.588;2022-10-31T03:10:14;98120.13;;;4.75;87.31
73106;BME280;61559;50.476;15.588;2022-10-31T03:12:53;98123.99;;;4.70;87.34
73106;BME280;61559;50.476;15.588;2022-10-31T03:15:32;98124.86;;;4.68;87.49
73106;BME280;61559;50.476;15.588;2022-10-31T03:18:06;98129.55;;;4.69;87.37
73106;BME280;61559;50.476;15.588;2022-10-31T03:20:41;98128.06;;;4.68;87.13
73106;BME280;61559;50.476;15.588;2022-10-31T03:23:16;98127.00;;;4.68;86.97
73106;BME280;61559;50.476;15.588;2022-10-31T03:25:48;98130.92;;;4.67;86.84
73106;BME280;61559;50.476;15.588;2022-10-31T03:28:30;98129.34;;;4.68;86.85
73106;BME280;61559;50.476;15.588;2022-10-31T03:31:05;98132.30;;;4.67;86.77
73106;BME280;61559;50.476;15.588;2022-10-31T03:33:39;98129.95;;;4.66;87.06
73106;BME280;61559;50.476;15.588;2022-10-31T03:36:11;98137.09;;;4.66;87.20
73106;BME280;61559;50.476;15.588;2022-10-31T03:38:46;98137.15;;;4.66;86.98
73106;BME280;61559;50.476;15.588;2022-10-31T03:41:21;98142.45;;;4.64;86.81
73106;BME280;61559;50.476;15.588;2022-10-31T03:43:57;98144.59;;;4.61;86.53
73106;BME280;61559;50.476;15.588;2022-10-31T03:46:28;98144.63;;;4.60;86.36
73106;BME280;61559;50.476;15.588;2022-10-31T03:48:58;98145.95;;;4.58;86.39
73106;BME280;61559;50.476;15.588;2022-10-31T03:51:32;98147.33;;;4.56;86.45
73106;BME280;61559;50.476;15.588;2022-10-31T03:54:11;98142.79;;;4.55;86.60
73106;BME280;61559;50.476;15.588;2022-10-31T03:56:47;98141.50;;;4.54;86.78
73106;BME280;61559;50.476;15.588;2022-10-31T03:59:23;98140.42;;;4.51;86.74
73106;BME280;61559;50.476;15.588;2022-10-31T04:01:59;98140.80;;;4.44;86.73
73106;BME280;61559;50.476;15.588;2022-10-31T04:04:33;98139.98;;;4.39;86.69
73106;BME280;61559;50.476;15.588;2022-10-31T04:07:06;98142.61;;;4.36;86.88
73106;BME280;61559;50.476;15.588;2022-10-31T04:09:40;98143.89;;;4.36;87.01
73106;BME280;61559;50.476;15.588;2022-10-31T04:12:14;98144.95;;;4.35;86.92
73106;BME280;61559;50.476;15.588;2022-10-31T04:14:48;98143.08;;;4.36;86.93
73106;BME280;61559;50.476;15.588;2022-10-31T04:17:22;98144.92;;;4.39;86.78
73106;BME280;61559;50.476;15.588;2022-10-31T04:19:54;98142.77;;;4.39;86.68
73106;BME280;61559;50.476;15.588;2022-10-31T04:22:25;98146.09;;;4.38;86.63
73106;BME280;61559;50.476;15.588;2022-10-31T04:24:56;98146.39;;;4.37;86.84
73106;BME280;61559;50.476;15.588;2022-10-31T04:27:27;98147.96;;;4.36;86.82
73106;BME280;61559;50.476;15.588;2022-10-31T04:29:58;98151.90;;;4.36;86.90
73106;BME280;61559;50.476;15.588;2022-10-31T04:32:29;98151.54;;;4.36;86.82
73106;BME280;61559;50.476;15.588;2022-10-31T04:35:00;98155.36;;;4.36;86.65
73106;BME280;61559;50.476;15.588;2022-10-31T04:37:29;98155.36;;;4.35;86.69
73106;BME280;61559;50.476;15.588;2022-10-31T04:40:01;98156.30;;;4.32;86.71
73106;BME280;61559;50.476;15.588;2022-10-31T04:42:32;98162.21;;;4.32;86.62
73106;BME280;61559;50.476;15.588;2022-10-31T04:45:04;98164.95;;;4.30;86.49
73106;BME280;61559;50.476;15.588;2022-10-31T04:47:35;98163.67;;;4.28;86.47
73106;BME280;61559;50.476;15.588;2022-10-31T04:50:07;98161.98;;;4.27;86.53
73106;BME280;61559;50.476;15.588;2022-10-31T04:52:41;98164.13;;;4.26;86.56
73106;BME280;61559;50.476;15.588;2022-10-31T04:55:13;98169.02;;;4.26;86.45
73106;BME280;61559;50.476;15.588;2022-10-31T04:57:46;98172.17;;;4.25;86.30
73106;BME280;61559;50.476;15.588;2022-10-31T05:00:19;98173.80;;;4.24;86.20
73106;BME280;61559;50.476;15.588;2022-10-31T05:02:52;98177.98;;;4.23;86.11
73106;BME280;61559;50.476;15.588;2022-10-31T05:05:26;98175.42;;;4.22;86.09
73106;BME280;61559;50.476;15.588;2022-10-31T05:07:58;98177.20;;;4.20;86.08
73106;BME280;61559;50.476;15.588;2022-10-31T05:10:30;98176.38;;;4.19;85.99
73106;BME280;61559;50.476;15.588;2022-10-31T05:13:03;98176.58;;;4.18;86.19
73106;BME280;61559;50.476;15.588;2022-10-31T05:15:37;98178.67;;;4.18;86.26
73106;BME280;61559;50.476;15.588;2022-10-31T05:18:08;98182.18;;;4.17;86.23
73106;BME280;61559;50.476;15.588;2022-10-31T05:20:38;98180.60;;;4.16;86.20
73106;BME280;61559;50.476;15.588;2022-10-31T05:23:08;98179.77;;;4.13;86.26
73106;BME280;61559;50.476;15.588;2022-10-31T05:25:41;98179.60;;;4.11;86.27
73106;BME280;61559;50.476;15.588;2022-10-31T05:28:12;98179.54;;;4.09;86.34
73106;BME280;61559;50.476;15.588;2022-10-31T05:30:42;98184.94;;;4.08;86.30
73106;BME280;61559;50.476;15.588;2022-10-31T05:33:14;98189.21;;;4.07;86.13
73106;BME280;61559;50.476;15.588;2022-10-31T05:35:45;98190.39;;;4.06;85.99
73106;BME280;61559;50.476;15.588;2022-10-31T05:38:17;98191.95;;;4.05;85.94
73106;BME280;61559;50.476;15.588;2022-10-31T05:40:47;98190.98;;;4.05;85.84
73106;BME280;61559;50.476;15.588;2022-10-31T05:43:18;98191.94;;;4.04;85.79
73106;BME280;61559;50.476;15.588;2022-10-31T05:45:53;98193.21;;;4.03;85.93
73106;BME280;61559;50.476;15.588;2022-10-31T05:48:24;98190.30;;;4.02;85.93
73106;BME280;61559;50.476;15.588;2022-10-31T05:50:55;98193.77;;;4.01;85.99
73106;BME280;61559;50.476;15.588;2022-10-31T05:53:26;98194.27;;;4.00;86.07
73106;BME280;61559;50.476;15.588;2022-10-31T05:55:57;98192.63;;;3.98;86.05
73106;BME280;61559;50.476;15.588;2022-10-31T05:58:28;98195.81;;;3.93;86.03
73106;BME280;61559;50.476;15.588;2022-10-31T06:00:59;98192.69;;;3.91;86.04
73106;BME280;61559;50.476;15.588;2022-10-31T06:03:30;98192.93;;;3.89;86.29
73106;BME280;61559;50.476;15.588;2022-10-31T06:06:01;98195.38;;;3.89;86.29
73106;BME280;61559;50.476;15.588;2022-10-31T06:08:32;98193.89;;;3.87;86.13
73106;BME280;61559;50.476;15.588;2022-10-31T06:11:03;98195.91;;;3.86;86.24
73106;BME280;61559;50.476;15.588;2022-10-31T06:13:34;98194.30;;;3.87;86.34
73106;BME280;61559;50.476;15.588;2022-10-31T06:16:06;98195.84;;;3.89;86.40
73106;BME280;61559;50.476;15.588;2022-10-31T06:18:37;98199.92;;;3.91;86.33
73106;BME280;61559;50.476;15.588;2022-10-31T06:21:07;98201.67;;;3.93;86.23
73106;BME280;61559;50.476;15.588;2022-10-31T06:23:43;98206.30;;;3.94;86.22
73106;BME280;61559;50.476;15.588;2022-10-31T06:26:14;98203.13;;;3.97;86.17
73106;BME280;61559;50.476;15.588;2022-10-31T06:28:45;98203.08;;;3.98;86.00
73106;BME280;61559;50.476;15.588;2022-10-31T06:31:16;98203.23;;;4.01;86.07
73106;BME280;61559;50.476;15.588;2022-10-31T06:33:47;98203.77;;;4.05;86.27
73106;BME280;61559;50.476;15.588;2022-10-31T06:36:18;98205.38;;;4.08;86.15
73106;BME280;61559;50.476;15.588;2022-10-31T06:38:49;98211.31;;;4.10;86.07
73106;BME280;61559;50.476;15.588;2022-10-31T06:41:20;98214.08;;;4.13;85.96
73106;BME280;61559;50.476;15.588;2022-10-31T06:43:51;98214.14;;;4.15;86.06
73106;BME280;61559;50.476;15.588;2022-10-31T06:46:22;98215.83;;;4.18;85.93
73106;BME280;61559;50.476;15.588;2022-10-31T06:48:53;98216.77;;;4.21;86.04
73106;BME280;61559;50.476;15.588;2022-10-31T06:51:24;98221.33;;;4.23;85.99
73106;BME280;61559;50.476;15.588;2022-10-31T06:53:55;98217.84;;;4.21;86.10
73106;BME280;61559;50.476;15.588;2022-10-31T06:56:25;98219.81;;;4.19;86.28
73106;BME280;61559;50.476;15.588;2022-10-31T06:58:56;98223.74;;;4.18;86.35
73106;BME280;61559;50.476;15.588;2022-10-31T07:01:27;98221.05;;;4.19;86.61
73106;BME280;61559;50.476;15.588;2022-10-31T07:03:58;98221.98;;;4.24;86.76
73106;BME280;61559;50.476;15.588;2022-10-31T07:06:28;98224.21;;;4.30;86.76
73106;BME280;61559;50.476;15.588;2022-10-31T07:08:59;98222.95;;;4.34;86.85
73106;BME280;61559;50.476;15.588;2022-10-31T07:11:28;98226.98;;;4.39;86.73
73106;BME280;61559;50.476;15.588;2022-10-31T07:13:59;98223.17;;;4.42;86.88
73106;BME280;61559;50.476;15.588;2022-10-31T07:16:30;98227.39;;;4.48;86.85
73106;BME280;61559;50.476;15.588;2022-10-31T07:19:01;98221.94;;;4.50;87.08
73106;BME280;61559;50.476;15.588;2022-10-31T07:21:32;98229.89;;;4.60;87.13
73106;BME280;61559;50.476;15.588;2022-10-31T07:24:03;98235.73;;;4.68;87.18
73106;BME280;61559;50.476;15.588;2022-10-31T07:26:35;98234.95;;;4.77;87.34
73106;BME280;61559;50.476;15.588;2022-10-31T07:29:06;98238.77;;;4.86;87.40
73106;BME280;61559;50.476;15.588;2022-10-31T07:31:35;98232.36;;;4.95;87.72
73106;BME280;61559;50.476;15.588;2022-10-31T07:34:06;98233.20;;;5.01;87.81
73106;BME280;61559;50.476;15.588;2022-10-31T07:36:37;98233.47;;;5.09;88.04
73106;BME280;61559;50.476;15.588;2022-10-31T07:39:08;98236.35;;;5.18;88.10
73106;BME280;61559;50.476;15.588;2022-10-31T07:41:39;98236.29;;;5.26;88.21
73106;BME280;61559;50.476;15.588;2022-10-31T07:44:12;98236.35;;;5.36;88.29
73106;BME280;61559;50.476;15.588;2022-10-31T07:46:42;98238.41;;;5.46;88.50
73106;BME280;61559;50.476;15.588;2022-10-31T07:49:12;98238.88;;;5.55;88.67
73106;BME280;61559;50.476;15.588;2022-10-31T07:51:43;98241.73;;;5.67;88.88
73106;BME280;61559;50.476;15.588;2022-10-31T07:54:15;98237.95;;;5.79;88.92
73106;BME280;61559;50.476;15.588;2022-10-31T07:56:46;98240.69;;;5.93;89.13
73106;BME280;61559;50.476;15.588;2022-10-31T07:59:17;98236.36;;;6.05;89.16
73106;BME280;61559;50.476;15.588;2022-10-31T08:01:48;98240.58;;;6.18;89.08
73106;BME280;61559;50.476;15.588;2022-10-31T08:04:20;98240.71;;;6.31;89.26
73106;BME280;61559;50.476;15.588;2022-10-31T08:06:51;98241.73;;;6.45;89.58
73106;BME280;61559;50.476;15.588;2022-10-31T08:09:22;98238.73;;;6.57;89.75
73106;BME280;61559;50.476;15.588;2022-10-31T08:11:53;98240.73;;;6.72;89.76
73106;BME280;61559;50.476;15.588;2022-10-31T08:14:24;98237.09;;;6.85;89.80
73106;BME280;61559;50.476;15.588;2022-10-31T08:16:56;98238.23;;;6.99;89.88
73106;BME280;61559;50.476;15.588;2022-10-31T08:19:27;98234.00;;;7.13;89.96
73106;BME280;61559;50.476;15.588;2022-10-31T08:21:58;98232.79;;;7.27;90.24
73106;BME280;61559;50.476;15.588;2022-10-31T08:24:29;98231.20;;;7.43;90.52
73106;BME280;61559;50.476;15.588;2022-10-31T08:26:59;98231.83;;;7.56;90.56
73106;BME280;61559;50.476;15.588;2022-10-31T08:29:30;98233.58;;;7.68;90.66
73106;BME280;61559;50.476;15.588;2022-10-31T08:32:00;98229.84;;;7.82;90.78
73106;BME280;61559;50.476;15.588;2022-10-31T08:34:29;98229.22;;;7.95;91.01
73106;BME280;61559;50.476;15.588;2022-10-31T08:37:00;98234.29;;;8.08;91.06
73106;BME280;61559;50.476;15.588;2022-10-31T08:39:30;98232.96;;;8.22;91.18
73106;BME280;61559;50.476;15.588;2022-10-31T08:42:00;98231.98;;;8.35;91.30
73106;BME280;61559;50.476;15.588;2022-10-31T08:44:30;98231.77;;;8.49;91.37
73106;BME280;61559;50.476;15.588;2022-10-31T08:47:01;98233.02;;;8.62;91.41
73106;BME280;61559;50.476;15.588;2022-10-31T08:49:32;98229.58;;;8.77;91.35
73106;BME280;61559;50.476;15.588;2022-10-31T08:52:03;98222.37;;;8.90;91.38
73106;BME280;61559;50.476;15.588;2022-10-31T08:54:40;98223.89;;;9.04;91.37
73106;BME280;61559;50.476;15.588;2022-10-31T08:57:11;98224.80;;;9.16;91.32
73106;BME280;61559;50.476;15.588;2022-10-31T08:59:42;98217.32;;;9.29;91.46
73106;BME280;61559;50.476;15.588;2022-10-31T09:02:12;98218.36;;;9.42;91.43
73106;BME280;61559;50.476;15.588;2022-10-31T09:04:43;98210.88;;;9.56;91.63
73106;BME280;61559;50.476;15.588;2022-10-31T09:07:14;98210.95;;;9.70;91.76
73106;BME280;61559;50.476;15.588;2022-10-31T09:09:50;98212.06;;;9.83;91.75
73106;BME280;61559;50.476;15.588;2022-10-31T09:12:21;98213.90;;;9.97;91.80
73106;BME280;61559;50.476;15.588;2022-10-31T09:14:53;98215.73;;;10.10;91.78
73106;BME280;61559;50.476;15.588;2022-10-31T09:17:24;98218.89;;;10.22;91.60
73106;BME280;61559;50.476;15.588;2022-10-31T09:19:56;98219.03;;;10.34;91.59
73106;BME280;61559;50.476;15.588;2022-10-31T09:22:27;98215.52;;;10.46;91.54
73106;BME280;61559;50.476;15.588;2022-10-31T09:24:58;98216.47;;;10.58;91.51
73106;BME280;61559;50.476;15.588;2022-10-31T09:27:27;98213.45;;;10.71;91.49
73106;BME280;61559;50.476;15.588;2022-10-31T09:29:58;98209.29;;;10.79;91.62
73106;BME280;61559;50.476;15.588;2022-10-31T09:32:29;98210.46;;;10.93;91.61
73106;BME280;61559;50.476;15.588;2022-10-31T09:35:00;98209.59;;;11.04;91.59
73106;BME280;61559;50.476;15.588;2022-10-31T09:37:31;98209.75;;;11.16;91.57
73106;BME280;61559;50.476;15.588;2022-10-31T09:40:02;98207.36;;;11.28;91.55
73106;BME280;61559;50.476;15.588;2022-10-31T09:42:55;98206.46;;;11.39;91.52
73106;BME280;61559;50.476;15.588;2022-10-31T09:45:33;98205.17;;;11.52;91.37
73106;BME280;61559;50.476;15.588;2022-10-31T09:48:24;98208.16;;;11.64;91.21
73106;BME280;61559;50.476;15.588;2022-10-31T09:51:00;98207.27;;;11.75;91.08
73106;BME280;61559;50.476;15.588;2022-10-31T09:53:37;98206.94;;;11.85;91.03
73106;BME280;61559;50.476;15.588;2022-10-31T09:56:11;98204.18;;;11.94;90.81
73106;BME280;61559;50.476;15.588;2022-10-31T09:58:46;98203.55;;;12.02;90.67
73106;BME280;61559;50.476;15.588;2022-10-31T10:01:28;98202.34;;;12.09;90.50
73106;BME280;61559;50.476;15.588;2022-10-31T10:04:05;98200.70;;;12.18;90.35
73106;BME280;61559;50.476;15.588;2022-10-31T10:06:49;98199.91;;;12.26;90.17
73106;BME280;61559;50.476;15.588;2022-10-31T10:09:24;98199.33;;;12.36;89.98
73106;BME280;61559;50.476;15.588;2022-10-31T10:12:06;98200.48;;;12.48;89.74
73106;BME280;61559;50.476;15.588;2022-10-31T10:14:48;98201.73;;;12.63;89.42
73106;BME280;61559;50.476;15.588;2022-10-31T10:17:31;98202.42;;;12.77;89.13
73106;BME280;61559;50.476;15.588;2022-10-31T10:20:25;98202.20;;;12.87;88.87
73106;BME280;61559;50.476;15.588;2022-10-31T10:25:58;98197.64;;;13.09;88.65
73106;BME280;61559;50.476;15.588;2022-10-31T10:28:32;98195.40;;;13.17;88.43
73106;BME280;61559;50.476;15.588;2022-10-31T10:31:11;98192.15;;;13.25;88.26
73106;BME280;61559;50.476;15.588;2022-10-31T10:33:47;98191.56;;;13.32;88.22
73106;BME280;61559;50.476;15.588;2022-10-31T10:36:26;98188.91;;;13.41;88.16
73106;BME280;61559;50.476;15.588;2022-10-31T10:39:02;98189.50;;;13.51;87.81
73106;BME280;61559;50.476;15.588;2022-10-31T10:41:34;98186.06;;;13.61;87.58
73106;BME280;61559;50.476;15.588;2022-10-31T10:44:09;98187.22;;;13.71;87.08
73106;BME280;61559;50.476;15.588;2022-10-31T10:46:43;98184.52;;;13.81;86.80
73106;BME280;61559;50.476;15.588;2022-10-31T10:49:40;98186.52;;;13.95;86.21
73106;BME280;61559;50.476;15.588;2022-10-31T10:52:29;98185.06;;;14.05;85.58
73106;BME280;61559;50.476;15.588;2022-10-31T10:55:19;98184.20;;;14.15;84.99
73106;BME280;61559;50.476;15.588;2022-10-31T10:57:58;98184.31;;;14.24;84.98
73106;BME280;61559;50.476;15.588;2022-10-31T11:00:29;98181.19;;;14.32;84.37
73106;BME280;61559;50.476;15.588;2022-10-31T11:03:01;98175.27;;;14.35;84.07
73106;BME280;61559;50.476;15.588;2022-10-31T11:05:39;98172.86;;;14.42;83.93
73106;BME280;61559;50.476;15.588;2022-10-31T11:08:10;98170.09;;;14.49;83.88
73106;BME280;61559;50.476;15.588;2022-10-31T11:10:39;98164.82;;;14.53;83.56
73106;BME280;61559;50.476;15.588;2022-10-31T11:13:22;98165.92;;;14.56;83.24
73106;BME280;61559;50.476;15.588;2022-10-31T11:15:58;98167.24;;;14.64;83.02
73106;BME280;61559;50.476;15.588;2022-10-31T11:18:31;98164.53;;;14.71;82.72
73106;BME280;61559;50.476;15.588;2022-10-31T11:21:04;98157.30;;;14.77;82.81
73106;BME280;61559;50.476;15.588;2022-10-31T11:23:36;98155.48;;;14.84;82.47
73106;BME280;61559;50.476;15.588;2022-10-31T11:26:14;98152.70;;;14.92;82.32
73106;BME280;61559;50.476;15.588;2022-10-31T11:28:59;98153.88;;;15.00;81.88
73106;BME280;61559;50.476;15.588;2022-10-31T11:31:30;98154.15;;;15.08;81.94
73106;BME280;61559;50.476;15.588;2022-10-31T11:34:04;98149.06;;;15.11;81.47
73106;BME280;61559;50.476;15.588;2022-10-31T11:36:37;98149.39;;;15.19;81.48
73106;BME280;61559;50.476;15.588;2022-10-31T11:39:17;98149.13;;;15.24;81.50
73106;BME280;61559;50.476;15.588;2022-10-31T11:41:50;98151.04;;;15.30;81.20
73106;BME280;61559;50.476;15.588;2022-10-31T11:44:25;98151.32;;;15.36;81.00
73106;BME280;61559;50.476;15.588;2022-10-31T11:46:58;98146.57;;;15.40;80.59
73106;BME280;61559;50.476;15.588;2022-10-31T11:49:33;98141.83;;;15.45;80.30
73106;BME280;61559;50.476;15.588;2022-10-31T11:52:08;98140.33;;;15.49;80.08
73106;BME280;61559;50.476;15.588;2022-10-31T11:54:47;98136.13;;;15.50;79.96
73106;BME280;61559;50.476;15.588;2022-10-31T11:57:27;98134.91;;;15.52;80.05
73106;BME280;61559;50.476;15.588;2022-10-31T12:00:00;98133.63;;;15.53;79.79
73106;BME280;61559;50.476;15.588;2022-10-31T12:02:32;98131.65;;;15.54;79.68
73106;BME280;61559;50.476;15.588;2022-10-31T12:05:10;98133.28;;;15.56;79.62
73106;BME280;61559;50.476;15.588;2022-10-31T12:07:50;98131.27;;;15.58;79.36
73106;BME280;61559;50.476;15.588;2022-10-31T12:10:24;98129.79;;;15.60;79.34
73106;BME280;61559;50.476;15.588;2022-10-31T12:13:08;98126.13;;;15.62;79.22
73106;BME280;61559;50.476;15.588;2022-10-31T12:15:49;98121.12;;;15.64;79.18
73106;BME280;61559;50.476;15.588;2022-10-31T12:18:35;98116.45;;;15.64;79.53
73106;BME280;61559;50.476;15.588;2022-10-31T12:21:16;98110.72;;;15.65;79.23
73106;BME280;61559;50.476;15.588;2022-10-31T12:24:01;98108.88;;;15.66;79.22
73106;BME280;61559;50.476;15.588;2022-10-31T12:26:34;98107.58;;;15.67;78.99
73106;BME280;61559;50.476;15.588;2022-10-31T12:29:18;98102.54;;;15.65;78.95
73106;BME280;61559;50.476;15.588;2022-10-31T12:32:03;98104.44;;;15.66;79.11
73106;BME280;61559;50.476;15.588;2022-10-31T12:34:58;98103.36;;;15.67;79.10
73106;BME280;61559;50.476;15.588;2022-10-31T12:37:44;98101.59;;;15.70;79.08
73106;BME280;61559;50.476;15.588;2022-10-31T12:40:29;98098.96;;;15.72;78.85
73106;BME280;61559;50.476;15.588;2022-10-31T12:43:16;98096.01;;;15.74;78.96
73106;BME280;61559;50.476;15.588;2022-10-31T12:45:56;98094.98;;;15.78;79.08
73106;BME280;61559;50.476;15.588;2022-10-31T12:48:42;98090.86;;;15.78;78.83
73106;BME280;61559;50.476;15.588;2022-10-31T12:51:28;98087.27;;;15.80;78.85
73106;BME280;61559;50.476;15.588;2022-10-31T12:54:22;98084.95;;;15.82;78.65
73106;BME280;61559;50.476;15.588;2022-10-31T12:57:03;98080.33;;;15.84;78.56
73106;BME280;61559;50.476;15.588;2022-10-31T12:59:42;98080.09;;;15.86;78.76
73106;BME280;61559;50.476;15.588;2022-10-31T13:02:20;98076.94;;;15.87;78.45
73106;BME280;61559;50.476;15.588;2022-10-31T13:04:56;98076.33;;;15.89;78.33
73106;BME280;61559;50.476;15.588;2022-10-31T13:07:30;98073.77;;;15.90;78.40
73106;BME280;61559;50.476;15.588;2022-10-31T13:10:14;98073.08;;;15.92;78.31
73106;BME280;61559;50.476;15.588;2022-10-31T13:12:49;98072.08;;;15.91;78.02
73106;BME280;61559;50.476;15.588;2022-10-31T13:15:24;98068.20;;;15.90;77.94
73106;BME280;61559;50.476;15.588;2022-10-31T13:17:59;98064.77;;;15.90;78.11
73106;BME280;61559;50.476;15.588;2022-10-31T13:20:33;98059.77;;;15.86;78.02
73106;BME280;61559;50.476;15.588;2022-10-31T13:23:10;98062.77;;;15.87;78.25
73106;BME280;61559;50.476;15.588;2022-10-31T13:26:08;98068.06;;;15.85;77.93
73106;BME280;61559;50.476;15.588;2022-10-31T13:28:45;98062.73;;;15.84;78.08
73106;BME280;61559;50.476;15.588;2022-10-31T13:31:17;98062.22;;;15.81;77.97
73106;BME280;61559;50.476;15.588;2022-10-31T13:33:51;98060.92;;;15.78;78.16
73106;BME280;61559;50.476;15.588;2022-10-31T13:36:30;98058.98;;;15.74;78.31
73106;BME280;61559;50.476;15.588;2022-10-31T13:39:13;98059.48;;;15.71;78.43
73106;BME280;61559;50.476;15.588;2022-10-31T13:41:50;98053.46;;;15.66;78.19